Time;durP1;ratioP1;P1;durP2;ratioP2;P2;SDS_P1;SDS_P2;PMS_P1;PMS_P2;Temp;Humidity;BMP_temperature;BMP_pressure;BME280_temperature;BME280_humidity;BME280_pressure;Samples;Min_cycle;Max_cycle;Signal;HPM_P1;HPM_P2
2024/01/12 00:01:14;;;;;;;2.40;1.60;;;-1.10;99.90;-2.20;101355;;;;557201;254;24135;-79
2024/01/12 00:03:42;;;;;;;2.77;1.30;;;-1.10;99.90;-2.20;101355;;;;556937;254;24163;-81
2024/01/12 00:06:11;;;;;;;4.40;1.37;;;-1.10;99.90;-2.20;101352;;;;556739;254;24163;-77
2024/01/12 00:08:39;;;;;;;1.73;1.60;;;-1.10;99.90;-2.20;101361;;;;556843;254;24132;-77
2024/01/12 00:11:10;;;;;;;3.43;2.40;;;-1.10;99.90;-2.10;101366;;;;556651;254;24117;-76
2024/01/12 00:13:37;;;;;;;9.07;3.53;;;-1.00;99.90;-2.10;101366;;;;560226;254;24172;-76
2024/01/12 00:16:09;;;;;;;14.00;6.13;;;-0.90;99.90;-2.00;101372;;;;556434;254;24118;-75
2024/01/12 00:18:37;;;;;;;14.60;6.10;;;-0.80;99.90;-1.90;101367;;;;556721;254;24149;-77
2024/01/12 00:21:05;;;;;;;9.83;4.37;;;-0.80;99.90;-1.90;101364;;;;564688;254;24175;-78
2024/01/12 00:23:33;;;;;;;7.30;3.60;;;-0.70;99.90;-1.80;101360;;;;556778;254;24145;-77
2024/01/12 00:26:01;;;;;;;8.03;3.80;;;-0.70;99.90;-1.70;101363;;;;556960;250;24167;-80
2024/01/12 00:28:30;;;;;;;9.63;2.83;;;-0.60;99.90;-1.70;101363;;;;556602;254;24126;-80
2024/01/12 00:30:57;;;;;;;5.13;3.03;;;-0.60;99.90;-1.70;101365;;;;556695;254;24179;-80
2024/01/12 00:33:25;;;;;;;5.77;3.20;;;-0.50;99.90;-1.60;101359;;;;556399;254;24109;-80
2024/01/12 00:35:56;;;;;;;9.95;4.72;;;-0.50;99.90;-1.60;101367;;;;551759;254;35549;-78
2024/01/12 00:38:22;;;;;;;6.23;3.50;;;-0.50;99.90;-1.60;101369;;;;551713;254;46492;-78
2024/01/12 00:40:50;;;;;;;3.30;2.15;;;-0.50;99.90;-1.60;101369;;;;551708;254;35575;-78
2024/01/12 00:43:17;;;;;;;4.73;1.77;;;-0.40;99.90;-1.50;101365;;;;556599;254;24113;-78
2024/01/12 00:45:45;;;;;;;13.53;3.30;;;-0.40;99.90;-1.50;101370;;;;556469;254;24143;-77
2024/01/12 00:48:13;;;;;;;8.30;1.90;;;-0.30;99.90;-1.40;101383;;;;556487;254;24169;-75
2024/01/12 00:50:42;;;;;;;6.97;2.03;;;-0.20;99.90;-1.40;101378;;;;556549;254;24128;-78
2024/01/12 00:53:09;;;;;;;5.33;2.00;;;-0.20;99.90;-1.30;101377;;;;556883;254;24115;-80
2024/01/12 00:55:37;;;;;;;3.10;2.13;;;-0.20;99.90;-1.30;101368;;;;557282;253;24111;-80
2024/01/12 00:58:05;;;;;;;2.93;1.80;;;-0.10;99.90;-1.30;101377;;;;557722;253;24140;-78
2024/01/12 01:00:33;;;;;;;3.63;2.50;;;-0.10;99.90;-1.30;101379;;;;557520;254;24104;-79
2024/01/12 01:03:06;;;;;;;5.47;2.17;;;-0.10;99.90;-1.30;101381;;;;557277;254;24166;-80
2024/01/12 01:05:31;;;;;;;4.10;2.30;;;-0.20;99.90;-1.30;101383;;;;557104;254;24139;-79
2024/01/12 01:07:59;;;;;;;5.93;3.00;;;-0.10;99.90;-1.30;101378;;;;557127;254;24104;-79
2024/01/12 01:10:27;;;;;;;4.90;2.70;;;-0.10;99.90;-1.20;101380;;;;556968;254;24209;-80
2024/01/12 01:12:55;;;;;;;4.77;2.30;;;-0.10;99.90;-1.20;101371;;;;556921;254;24138;-80
2024/01/12 01:15:23;;;;;;;3.10;2.03;;;-0.10;99.90;-1.20;101366;;;;556588;254;24124;-80
2024/01/12 01:17:51;;;;;;;4.23;2.20;;;-0.10;99.90;-1.20;101359;;;;556844;254;24140;-80
2024/01/12 01:20:19;;;;;;;4.60;2.03;;;-0.10;99.90;-1.20;101362;;;;556672;254;24113;-80
2024/01/12 01:22:47;;;;;;;5.53;2.33;;;-0.10;99.90;-1.20;101356;;;;557005;254;24177;-77
2024/01/12 01:25:16;;;;;;;3.90;1.93;;;-0.10;99.90;-1.20;101350;;;;556711;252;24167;-79
2024/01/12 01:27:43;;;;;;;2.93;1.93;;;-0.10;99.90;-1.20;101343;;;;556594;254;24143;-75
2024/01/12 01:30:14;;;;;;;2.07;1.77;;;-0.10;99.90;-1.30;101338;;;;556961;254;24136;-76
2024/01/12 01:32:39;;;;;;;1.73;1.60;;;-0.10;99.90;-1.20;101347;;;;556593;254;24131;-75
2024/01/12 01:35:10;;;;;;;4.00;2.40;;;-0.10;99.90;-1.20;101336;;;;556767;254;24125;-76
2024/01/12 01:37:35;;;;;;;3.03;1.83;;;-0.10;99.90;-1.20;101351;;;;556596;254;24151;-77
2024/01/12 01:40:06;;;;;;;4.57;1.67;;;-0.10;99.90;-1.20;101341;;;;556768;254;24139;-75
2024/01/12 01:42:31;;;;;;;3.43;1.80;;;-0.10;99.90;-1.30;101344;;;;556037;254;24121;-77
2024/01/12 01:44:59;;;;;;;7.10;2.10;;;-0.10;99.90;-1.30;101341;;;;556734;254;24119;-77
2024/01/12 01:47:27;;;;;;;3.63;1.93;;;-0.20;99.90;-1.30;101343;;;;556815;254;24157;-77
2024/01/12 01:49:56;;;;;;;2.10;1.47;;;-0.20;99.90;-1.30;101327;;;;556737;254;24159;-78
2024/01/12 01:52:27;;;;;;;2.23;1.73;;;-0.20;99.90;-1.30;101332;;;;556786;254;24127;-77
2024/01/12 01:54:51;;;;;;;5.67;2.20;;;-0.20;99.90;-1.30;101324;;;;556117;254;24136;-79
2024/01/12 01:57:22;;;;;;;3.70;1.70;;;-0.20;99.90;-1.30;101315;;;;556331;254;25260;-80
2024/01/12 01:59:50;;;;;;;3.97;1.97;;;-0.20;99.90;-1.40;101321;;;;556494;254;24177;-80
2024/01/12 02:02:15;;;;;;;2.73;1.80;;;-0.20;99.90;-1.40;101323;;;;555966;254;24131;-80
2024/01/12 02:04:43;;;;;;;2.17;1.63;;;-0.40;99.90;-1.40;101320;;;;564908;253;24126;-81
2024/01/12 02:07:11;;;;;;;5.07;2.07;;;-0.20;99.90;-1.40;101327;;;;557143;253;24155;-78
2024/01/12 02:09:39;;;;;;;2.20;2.00;;;-0.30;99.90;-1.40;101321;;;;557682;253;24201;-80
2024/01/12 02:12:07;;;;;;;4.73;2.03;;;-0.30;99.90;-1.40;101319;;;;565881;251;24134;-80
2024/01/12 02:14:35;;;;;;;5.57;2.47;;;-0.30;99.90;-1.40;101314;;;;557398;254;24135;-80
2024/01/12 02:17:03;;;;;;;3.37;2.17;;;-0.30;99.90;-1.40;101315;;;;557344;254;24127;-81
2024/01/12 02:19:30;;;;;;;5.23;2.00;;;-0.30;99.90;-1.40;101313;;;;565445;252;25158;-79
2024/01/12 02:21:58;;;;;;;5.80;1.93;;;-0.30;99.90;-1.40;101311;;;;557304;254;24122;-82
2024/01/12 02:24:26;;;;;;;7.23;2.57;;;-0.30;99.90;-1.40;101313;;;;557536;254;24197;-81
2024/01/12 02:26:54;;;;;;;5.57;1.93;;;-0.20;99.90;-1.40;101308;;;;557000;254;24256;-81
2024/01/12 02:29:22;;;;;;;6.47;2.30;;;-0.20;99.90;-1.40;101319;;;;557404;254;24129;-81
2024/01/12 02:31:54;;;;;;;3.50;2.10;;;-0.20;99.90;-1.30;101321;;;;557139;254;24159;-78
2024/01/12 02:34:18;;;;;;;3.57;1.80;;;-0.20;99.90;-1.30;101321;;;;556620;254;25183;-79
2024/01/12 02:36:46;;;;;;;4.60;1.93;;;-0.20;99.90;-1.30;101321;;;;557306;254;24187;-78
2024/01/12 02:39:14;;;;;;;3.57;2.10;;;-0.20;99.90;-1.30;101324;;;;557105;254;24164;-78
2024/01/12 02:41:42;;;;;;;3.37;1.70;;;-0.20;99.90;-1.30;101320;;;;557043;254;25181;-78
2024/01/12 02:44:10;;;;;;;6.20;2.47;;;-0.20;99.90;-1.30;101324;;;;556785;254;24116;-77
2024/01/12 02:46:38;;;;;;;4.57;2.30;;;-0.20;99.90;-1.30;101316;;;;556674;254;24119;-77
2024/01/12 02:49:08;;;;;;;6.27;2.43;;;-0.20;99.90;-1.30;101316;;;;556638;253;24140;-76
2024/01/12 02:51:38;;;;;;;6.77;2.50;;;-0.20;99.90;-1.30;101305;;;;556622;254;24166;-78
2024/01/12 02:54:02;;;;;;;4.97;2.30;;;-0.20;99.90;-1.40;101301;;;;556437;254;24189;-77
2024/01/12 02:56:30;;;;;;;7.20;3.17;;;-0.20;99.90;-1.40;101293;;;;556337;254;24098;-76
2024/01/12 02:58:58;;;;;;;4.10;2.43;;;-0.30;99.90;-1.40;101297;;;;556265;254;24125;-75
2024/01/12 03:01:26;;;;;;;3.33;2.43;;;-0.30;99.90;-1.40;101290;;;;556315;254;24170;-75
2024/01/12 03:03:54;;;;;;;6.17;3.77;;;-0.30;99.90;-1.50;101293;;;;556432;254;24116;-76
2024/01/12 03:06:22;;;;;;;12.80;5.70;;;-0.40;99.90;-1.50;101289;;;;556285;254;24135;-75
2024/01/12 03:08:51;;;;;;;11.13;7.33;;;-0.40;99.90;-1.60;101283;;;;556257;254;24161;-76
2024/01/12 03:11:20;;;;;;;8.87;5.87;;;-0.50;99.90;-1.60;101274;;;;556415;254;24183;-73
2024/01/12 03:13:48;;;;;;;10.23;4.53;;;-0.50;99.90;-1.70;101271;;;;556292;254;24167;-74
2024/01/12 03:16:22;;;;;;;6.83;3.80;;;-0.60;99.90;-1.70;101275;;;;556469;254;24110;-75
2024/01/12 03:18:50;;;;;;;5.00;2.97;;;-0.60;99.90;-1.80;101276;;;;565219;252;24130;-74
2024/01/12 03:21:20;;;;;;;4.10;3.07;;;-0.60;99.90;-1.80;101272;;;;557549;253;24165;-75
2024/01/12 03:23:47;;;;;;;6.63;3.60;;;-0.70;99.90;-1.80;101261;;;;557190;254;24122;-75
2024/01/12 03:26:15;;;;;;;4.93;2.70;;;-0.70;99.90;-1.80;101260;;;;557403;254;27346;-74
2024/01/12 03:28:43;;;;;;;6.70;2.73;;;-0.70;99.90;-1.80;101254;;;;556824;254;24120;-75
2024/01/12 03:31:11;;;;;;;4.57;2.60;;;-0.70;99.90;-1.80;101257;;;;556914;254;24115;-74
2024/01/12 03:33:39;;;;;;;5.07;2.80;;;-0.70;99.90;-1.80;101255;;;;557182;254;24126;-78
2024/01/12 03:36:10;;;;;;;5.87;2.87;;;-0.70;99.90;-1.80;101250;;;;557282;254;24135;-76
2024/01/12 03:38:34;;;;;;;4.03;3.10;;;-0.70;99.90;-1.80;101239;;;;565157;253;24172;-79
2024/01/12 03:41:02;;;;;;;8.77;3.13;;;-0.70;99.90;-1.80;101245;;;;556936;254;24104;-77
2024/01/12 03:43:30;;;;;;;6.00;3.63;;;-0.70;99.90;-1.90;101245;;;;556623;254;24144;-81
2024/01/12 03:45:58;;;;;;;11.57;3.47;;;-0.70;99.90;-1.90;101238;;;;556862;254;24220;-81
2024/01/12 03:48:26;;;;;;;6.47;3.83;;;-0.70;99.90;-1.90;101234;;;;556675;254;24140;-79
2024/01/12 03:50:54;;;;;;;8.30;3.73;;;-0.80;99.90;-1.90;101247;;;;556771;254;24169;-80
2024/01/12 03:53:22;;;;;;;4.27;3.40;;;-0.80;99.90;-1.90;101235;;;;556997;254;24107;-79
2024/01/12 03:55:50;;;;;;;9.17;4.73;;;-0.80;99.90;-1.90;101235;;;;557009;254;25218;-81
2024/01/12 03:58:18;;;;;;;7.07;4.10;;;-0.80;99.90;-1.90;101240;;;;556820;254;24144;-80
2024/01/12 04:00:46;;;;;;;6.93;4.17;;;-0.70;99.90;-1.80;101231;;;;556623;254;24132;-76
2024/01/12 04:03:14;;;;;;;8.40;4.17;;;-0.70;99.90;-1.90;101229;;;;557106;254;24130;-77
2024/01/12 04:05:41;;;;;;;8.60;4.23;;;-0.70;99.90;-1.90;101226;;;;556723;254;24133;-76
2024/01/12 04:08:09;;;;;;;10.03;4.40;;;-0.70;99.90;-1.80;101226;;;;556866;254;24150;-75
2024/01/12 04:10:37;;;;;;;14.80;4.83;;;-0.70;99.90;-1.80;101229;;;;556569;254;24156;-78
2024/01/12 04:13:05;;;;;;;9.70;4.43;;;-0.70;99.90;-1.80;101235;;;;556432;253;24148;-75
2024/01/12 04:15:33;;;;;;;12.83;5.03;;;-0.70;99.90;-1.80;101234;;;;556669;254;24128;-78
2024/01/12 04:18:01;;;;;;;12.27;5.53;;;-0.70;99.90;-1.80;101232;;;;556940;254;24121;-76
2024/01/12 04:20:29;;;;;;;10.97;5.43;;;-0.70;99.90;-1.80;101232;;;;557060;254;24147;-80
2024/01/12 04:22:57;;;;;;;15.30;7.33;;;-0.70;99.90;-1.90;101219;;;;557169;254;24138;-82
2024/01/12 04:25:25;;;;;;;21.53;8.73;;;-0.70;99.90;-1.90;101216;;;;557010;254;24117;-80
2024/01/12 04:27:53;;;;;;;22.20;9.53;;;-0.80;99.90;-1.90;101213;;;;556996;254;24228;-77
2024/01/12 04:30:21;;;;;;;25.83;8.83;;;-0.80;99.90;-1.90;101218;;;;557353;253;24131;-80
2024/01/12 04:32:49;;;;;;;24.77;9.00;;;-0.80;99.90;-1.90;101215;;;;558328;253;24164;-82
2024/01/12 04:35:17;;;;;;;17.20;7.37;;;-0.80;99.90;-1.90;101210;;;;557924;254;24124;-79
2024/01/12 04:37:45;;;;;;;23.37;7.23;;;-0.80;99.90;-1.90;101212;;;;557964;254;24111;-76
2024/01/12 04:40:14;;;;;;;11.33;5.97;;;-0.80;99.90;-1.90;101211;;;;557015;254;24143;-76
2024/01/12 04:42:43;;;;;;;16.87;6.60;;;-0.80;99.90;-1.90;101191;;;;556897;254;24123;-76
2024/01/12 04:45:11;;;;;;;23.17;7.57;;;-0.80;99.90;-1.90;101194;;;;556963;254;24157;-76
2024/01/12 04:47:39;;;;;;;16.67;6.73;;;-0.80;99.90;-1.90;101198;;;;556954;254;24162;-75
2024/01/12 04:50:07;;;;;;;14.50;6.17;;;-0.80;99.90;-1.90;101200;;;;557306;254;24160;-81
2024/01/12 04:52:35;;;;;;;12.60;5.80;;;-0.80;99.90;-1.90;101193;;;;557063;254;24147;-76
2024/01/12 04:55:07;;;;;;;10.67;3.57;;;-0.80;99.90;-1.90;101182;;;;557081;252;24163;-78
2024/01/12 04:57:32;;;;;;;4.07;3.30;;;-0.80;99.90;-1.90;101196;;;;565639;253;24179;-77
2024/01/12 05:00:00;;;;;;;8.40;3.97;;;-0.80;99.90;-1.90;101186;;;;566509;252;24139;-82
2024/01/12 05:02:28;;;;;;;9.80;3.70;;;-0.80;99.90;-1.90;101183;;;;550024;258;25216;-81
2024/01/12 05:04:56;;;;;;;7.37;4.13;;;-0.70;99.90;-1.80;101175;;;;549829;258;24110;-81
2024/01/12 05:07:24;;;;;;;10.50;4.90;;;-0.70;99.90;-1.80;101172;;;;549621;258;24119;-82
2024/01/12 05:09:51;;;;;;;8.10;4.50;;;-0.70;99.90;-1.80;101176;;;;549312;258;24193;-81
2024/01/12 05:12:19;;;;;;;9.53;4.80;;;-0.70;99.90;-1.80;101169;;;;549022;258;24225;-77
2024/01/12 05:14:47;;;;;;;8.97;4.17;;;-0.70;99.90;-1.80;101175;;;;549178;258;24165;-79
2024/01/12 05:17:16;;;;;;;5.80;3.60;;;-0.60;99.90;-1.80;101167;;;;549034;258;24143;-79
2024/01/12 05:19:44;;;;;;;5.37;3.37;;;-0.70;99.90;-1.80;101177;;;;549173;258;24162;-81
2024/01/12 05:22:15;;;;;;;7.20;2.97;;;-0.60;99.90;-1.80;101172;;;;549002;258;24126;-82
2024/01/12 05:24:40;;;;;;;4.73;2.87;;;-0.60;99.90;-1.80;101172;;;;548745;258;24167;-80
2024/01/12 05:27:08;;;;;;;8.20;3.63;;;-0.60;99.90;-1.70;101159;;;;549364;258;24138;-79
2024/01/12 05:29:36;;;;;;;7.33;2.90;;;-0.60;99.90;-1.70;101159;;;;549779;258;24128;-76
2024/01/12 05:32:03;;;;;;;5.77;2.87;;;-0.60;99.90;-1.70;101145;;;;549382;258;24119;-76
2024/01/12 05:34:31;;;;;;;2.50;2.30;;;-0.60;99.90;-1.70;101140;;;;557348;256;24106;-76
2024/01/12 05:36:59;;;;;;;4.73;4.23;;;-0.60;99.90;-1.70;101142;;;;549336;258;24154;-78
2024/01/12 05:39:27;;;;;;;9.73;4.53;;;-0.60;99.90;-1.70;101140;;;;549089;258;24122;-77
2024/01/12 05:41:55;;;;;;;7.13;4.07;;;-0.60;99.90;-1.70;101137;;;;549669;258;24113;-76
2024/01/12 05:44:23;;;;;;;5.67;4.00;;;-0.50;99.90;-1.60;101128;;;;550640;258;24123;-77
2024/01/12 05:46:52;;;;;;;4.13;3.00;;;-0.50;99.90;-1.70;101144;;;;550057;258;24109;-77
2024/01/12 05:49:20;;;;;;;5.70;2.77;;;-0.50;99.90;-1.60;101135;;;;550158;258;24151;-81
2024/01/12 05:51:51;;;;;;;6.47;3.77;;;-0.50;99.90;-1.60;101129;;;;550005;258;24165;-81
2024/01/12 05:54:16;;;;;;;7.67;4.50;;;-0.50;99.90;-1.60;101130;;;;549692;258;24175;-79
2024/01/12 05:56:44;;;;;;;9.87;5.27;;;-0.50;99.90;-1.60;101124;;;;549609;258;24180;-77
2024/01/12 05:59:11;;;;;;;10.07;5.80;;;-0.50;99.90;-1.60;101122;;;;550210;258;24145;-80
2024/01/12 06:01:39;;;;;;;8.53;5.33;;;-0.50;99.90;-1.60;101127;;;;550284;258;24143;-76
2024/01/12 06:04:07;;;;;;;9.20;4.87;;;-0.50;99.90;-1.60;101122;;;;557361;255;24129;-76
2024/01/12 06:06:35;;;;;;;10.10;4.90;;;-0.50;99.90;-1.60;101129;;;;549896;258;24110;-76
2024/01/12 06:09:05;;;;;;;9.33;3.80;;;-0.50;99.90;-1.60;101130;;;;550087;258;24118;-77
2024/01/12 06:11:32;;;;;;;3.80;2.87;;;-0.50;99.90;-1.60;101115;;;;549631;258;25195;-78
2024/01/12 06:14:00;;;;;;;7.23;2.80;;;-0.50;99.90;-1.60;101130;;;;549853;258;24128;-77
2024/01/12 06:16:27;;;;;;;8.57;3.83;;;-0.50;99.90;-1.60;101133;;;;549717;258;24117;-80
2024/01/12 06:18:56;;;;;;;7.40;3.33;;;-0.50;99.90;-1.60;101131;;;;549669;258;24123;-81
2024/01/12 06:21:24;;;;;;;6.13;3.30;;;-0.50;99.90;-1.60;101126;;;;549457;258;24133;-80
2024/01/12 06:23:52;;;;;;;6.60;3.20;;;-0.50;99.90;-1.60;101117;;;;548959;258;24126;-79
2024/01/12 06:26:20;;;;;;;9.73;4.37;;;-0.50;99.90;-1.60;101115;;;;549234;258;24157;-81
2024/01/12 06:28:48;;;;;;;8.38;4.75;;;-0.50;99.90;-1.60;101115;;;;544994;258;35451;-77
2024/01/12 06:31:16;;;;;;;7.00;3.20;;;-0.40;99.90;-1.50;101109;;;;549680;258;24124;-81
2024/01/12 06:33:44;;;;;;;4.27;2.87;;;-0.40;99.90;-1.50;101105;;;;549075;258;24170;-82
2024/01/12 06:36:12;;;;;;;6.67;2.40;;;-0.40;99.90;-1.50;101092;;;;549789;258;24180;-80
2024/01/12 06:38:40;;;;;;;4.30;2.30;;;-0.40;99.90;-1.50;101093;;;;549579;258;24121;-80
2024/01/12 06:41:08;;;;;;;6.87;3.00;;;-0.40;99.90;-1.50;101099;;;;549721;258;24118;-83
2024/01/12 06:43:36;;;;;;;6.67;3.30;;;-0.30;99.90;-1.40;101101;;;;549981;258;24122;-82
2024/01/12 06:46:07;;;;;;;6.40;3.43;;;-0.30;99.90;-1.40;101085;;;;549751;258;24157;-82
2024/01/12 06:48:35;;;;;;;7.20;3.43;;;-0.30;99.90;-1.40;101080;;;;549705;258;24313;-81
2024/01/12 06:51:03;;;;;;;3.63;2.97;;;-0.30;99.90;-1.40;101074;;;;549641;258;24111;-80
2024/01/12 06:53:32;;;;;;;5.57;3.53;;;-0.30;99.90;-1.50;101062;;;;549617;258;24102;-76
2024/01/12 06:56:03;;;;;;;5.90;3.17;;;-0.30;99.90;-1.50;101063;;;;550171;258;24117;-77
2024/01/12 06:58:29;;;;;;;7.10;3.77;;;-0.30;99.90;-1.40;101063;;;;549612;258;24171;-76
2024/01/12 07:00:58;;;;;;;5.07;4.20;;;-0.40;99.90;-1.50;101062;;;;549966;258;24122;-77
2024/01/12 07:03:25;;;;;;;9.13;4.60;;;-0.30;99.90;-1.40;101062;;;;549762;258;24142;-76
2024/01/12 07:05:53;;;;;;;5.57;3.33;;;-0.30;99.90;-1.40;101058;;;;549615;258;24157;-76
2024/01/12 07:08:21;;;;;;;8.60;3.87;;;-0.30;99.90;-1.40;101061;;;;549513;258;24231;-77
2024/01/12 07:10:48;;;;;;;4.17;3.17;;;-0.30;99.90;-1.40;101061;;;;549407;258;24101;-78
2024/01/12 07:13:16;;;;;;;8.13;3.63;;;-0.30;99.90;-1.30;101061;;;;549263;258;24174;-78
2024/01/12 07:15:44;;;;;;;8.43;3.10;;;-0.20;99.90;-1.30;101051;;;;549326;258;24107;-78
2024/01/12 07:18:12;;;;;;;4.47;3.07;;;-0.20;99.90;-1.30;101055;;;;549345;258;24207;-78
2024/01/12 07:20:40;;;;;;;7.27;3.97;;;-0.20;99.90;-1.30;101051;;;;549249;258;24166;-78
2024/01/12 07:23:08;;;;;;;7.90;3.90;;;-0.20;99.90;-1.30;101047;;;;549149;258;24137;-78
2024/01/12 07:25:38;;;;;;;10.53;3.73;;;-0.20;99.90;-1.20;101031;;;;549428;258;24117;-77
2024/01/12 07:28:07;;;;;;;5.83;3.23;;;-0.10;99.90;-1.10;101038;;;;549117;258;24159;-78
2024/01/12 07:30:36;;;;;;;6.00;3.33;;;0.00;99.90;-1.10;101039;;;;557504;257;24135;-76
2024/01/12 07:33:00;;;;;;;7.37;4.03;;;-0.10;99.90;-1.10;101038;;;;548882;258;24119;-76
2024/01/12 07:35:28;;;;;;;8.93;3.80;;;0.00;99.90;-1.00;101042;;;;549530;258;24152;-77
2024/01/12 07:37:56;;;;;;;5.23;2.20;;;0.00;99.90;-1.00;101035;;;;549668;258;24114;-77
2024/01/12 07:40:24;;;;;;;3.73;2.53;;;0.10;99.90;-0.90;101029;;;;549713;258;25158;-77
2024/01/12 07:42:52;;;;;;;2.77;1.73;;;0.10;99.90;-0.90;101024;;;;549908;258;24105;-80
2024/01/12 07:45:24;;;;;;;3.70;1.50;;;0.20;99.90;-0.80;101004;;;;550079;258;24131;-80
2024/01/12 07:47:48;;;;;;;1.67;1.30;;;0.30;99.90;-0.80;101000;;;;557836;256;24114;-81
2024/01/12 07:50:16;;;;;;;2.90;1.90;;;0.30;99.90;-0.70;100991;;;;550146;258;24136;-83
2024/01/12 07:52:44;;;;;;;1.63;1.30;;;0.30;99.90;-0.70;100979;;;;549502;258;25197;-79
2024/01/12 07:55:12;;;;;;;3.77;2.33;;;0.40;99.90;-0.70;100979;;;;549489;258;25188;-78
2024/01/12 07:57:40;;;;;;;1.63;1.50;;;0.40;99.90;-0.70;100971;;;;550126;258;24162;-78
2024/01/12 08:00:12;;;;;;;1.80;1.43;;;0.40;99.90;-0.70;100983;;;;550460;258;24120;-80
2024/01/12 08:02:36;;;;;;;3.30;1.63;;;0.40;99.90;-0.70;100980;;;;549396;258;24137;-77
2024/01/12 08:05:05;;;;;;;5.33;2.30;;;0.40;99.90;-0.70;100982;;;;549809;258;24124;-77
2024/01/12 08:07:33;;;;;;;4.23;2.17;;;0.40;99.90;-0.60;100973;;;;558772;256;24188;-78
2024/01/12 08:10:02;;;;;;;5.17;2.40;;;0.50;99.90;-0.50;100964;;;;550503;258;24194;-83
2024/01/12 08:12:30;;;;;;;2.03;1.30;;;0.60;99.90;-0.50;100960;;;;550406;258;24106;-82
2024/01/12 08:14:58;;;;;;;4.40;1.87;;;0.50;99.90;-0.40;100962;;;;550523;258;24127;-82
2024/01/12 08:17:26;;;;;;;7.97;2.90;;;0.60;99.90;-0.40;100961;;;;545312;258;35409;-78
2024/01/12 08:19:54;;;;;;;2.27;1.83;;;0.70;99.90;-0.40;100962;;;;549871;258;24149;-78
2024/01/12 08:22:22;;;;;;;3.47;2.13;;;0.70;99.90;-0.30;100947;;;;549696;258;25148;-77
2024/01/12 08:24:50;;;;;;;5.07;1.50;;;0.80;99.90;-0.30;100940;;;;549718;258;24113;-78
2024/01/12 08:27:18;;;;;;;8.30;1.37;;;0.80;99.90;-0.20;100941;;;;549548;258;24147;-77
2024/01/12 08:29:46;;;;;;;4.47;1.90;;;0.80;99.90;-0.20;100930;;;;549988;258;24204;-77
2024/01/12 08:32:14;;;;;;;0.90;0.90;;;0.90;99.90;-0.20;100917;;;;549468;258;24158;-78
2024/01/12 08:34:42;;;;;;;3.97;1.73;;;0.90;99.90;-0.20;100920;;;;549573;258;24126;-77
2024/01/12 08:37:10;;;;;;;1.33;1.23;;;0.90;99.90;-0.30;100900;;;;549606;258;24116;-77
2024/01/12 08:39:41;;;;;;;9.63;1.47;;;0.80;99.90;-0.30;100880;;;;549761;258;24144;-79
2024/01/12 08:42:06;;;;;;;2.27;1.13;;;0.80;99.90;-0.30;100886;;;;549301;258;24136;-79
2024/01/12 08:44:34;;;;;;;2.20;1.43;;;0.80;99.90;-0.20;100880;;;;549344;258;25153;-77
2024/01/12 08:47:07;;;;;;;3.00;1.00;;;0.90;99.90;0.00;100867;;;;549288;258;25331;-81
2024/01/12 08:49:31;;;;;;;5.87;1.90;;;1.00;99.90;0.30;100874;;;;549156;258;24159;-80
2024/01/12 08:51:59;;;;;;;2.60;1.47;;;1.30;99.90;0.50;100861;;;;549701;258;24142;-78
2024/01/12 08:54:27;;;;;;;2.60;1.40;;;1.50;99.90;0.70;100876;;;;557877;255;24126;-80
2024/01/12 08:56:56;;;;;;;1.50;1.40;;;1.90;99.90;0.90;100873;;;;549965;258;24182;-78
2024/01/12 08:59:25;;;;;;;1.53;1.43;;;1.80;99.90;1.00;100862;;;;549878;258;24120;-80
2024/01/12 09:01:52;;;;;;;2.57;1.20;;;2.00;99.90;1.10;100855;;;;549576;258;24132;-79
2024/01/12 09:04:20;;;;;;;2.37;1.23;;;2.10;99.90;1.20;100851;;;;549648;258;24198;-80
2024/01/12 09:06:47;;;;;;;2.97;1.47;;;2.20;99.90;1.30;100827;;;;549414;258;24130;-81
2024/01/12 09:09:15;;;;;;;2.80;1.40;;;2.30;99.90;1.30;100834;;;;549518;258;24214;-79
2024/01/12 09:11:47;;;;;;;0.90;0.90;;;2.40;99.90;1.40;100819;;;;549571;258;24176;-78
2024/01/12 09:14:19;;;;;;;2.17;1.43;;;2.40;99.90;1.50;100813;;;;555674;258;24201;-78
2024/01/12 09:16:44;;;;;;;1.70;1.60;;;2.50;99.90;1.60;100804;;;;557775;255;24173;-79
2024/01/12 09:19:12;;;;;;;1.10;1.10;;;2.60;99.90;1.60;100781;;;;550536;258;24110;-79
2024/01/12 09:21:40;;;;;;;1.13;1.10;;;2.60;99.90;1.70;100801;;;;550134;258;24132;-78
2024/01/12 09:24:08;;;;;;;6.83;1.77;;;2.70;99.90;1.70;100789;;;;558015;256;24216;-79
2024/01/12 09:26:36;;;;;;;4.47;1.40;;;2.70;99.90;1.80;100800;;;;549830;258;24191;-79
2024/01/12 09:29:04;;;;;;;2.43;2.00;;;2.80;99.90;1.80;100780;;;;549549;258;24124;-78
2024/01/12 09:31:32;;;;;;;4.50;1.67;;;2.80;99.90;1.90;100789;;;;549401;258;24285;-78
2024/01/12 09:34:00;;;;;;;1.57;1.47;;;2.90;99.90;1.90;100778;;;;549809;258;24122;-80
2024/01/12 09:36:28;;;;;;;0.87;0.87;;;2.90;99.90;1.80;100772;;;;549648;258;25203;-78
2024/01/12 09:38:56;;;;;;;3.17;1.53;;;2.80;99.90;1.70;100757;;;;549771;258;24161;-79
2024/01/12 09:41:45;;;;;;;3.33;1.30;;;2.80;99.90;1.60;100756;;;;550294;258;24162;-78
2024/01/12 09:44:13;;;;;;;3.70;1.23;;;2.70;99.90;1.50;100749;;;;549691;258;24148;-79
2024/01/12 09:46:56;;;;;;;2.03;1.43;;;2.60;99.90;1.30;100751;;;;550125;258;24167;-80
2024/01/12 09:49:28;;;;;;;5.65;2.90;;;2.40;99.90;1.20;100752;;;;545292;258;35360;-78
2024/01/12 09:51:57;;;;;;;1.93;1.17;;;2.20;99.90;1.10;100746;;;;550179;258;24131;-81
2024/01/12 09:54:25;;;;;;;2.07;0.93;;;2.20;99.90;1.10;100749;;;;549445;258;25156;-79
2024/01/12 09:56:57;;;;;;;3.57;1.40;;;2.10;99.90;1.00;100738;;;;549554;258;24133;-78
2024/01/12 09:59:27;;;;;;;0.60;0.60;;;2.00;99.90;0.90;100732;;;;549534;258;24108;-80
2024/01/12 10:01:56;;;;;;;2.03;1.10;;;2.00;99.90;0.80;100730;;;;549062;258;24127;-78
2024/01/12 10:04:21;;;;;;;0.97;0.97;;;1.90;99.90;0.80;100727;;;;545206;258;24120;-79
2024/01/12 10:06:49;;;;;;;1.47;1.20;;;1.80;99.90;0.70;100730;;;;549443;258;24190;-78
2024/01/12 10:09:20;;;;;;;0.87;0.87;;;1.70;99.90;0.80;100733;;;;557253;256;24181;-77
2024/01/12 10:11:47;;;;;;;2.93;1.57;;;1.80;99.90;0.90;100751;;;;549860;258;24172;-79
2024/01/12 10:14:25;;;;;;;1.40;1.10;;;2.00;99.90;1.10;100744;;;;549765;258;24138;-81
2024/01/12 10:17:00;;;;;;;4.77;1.50;;;2.40;99.90;1.40;100734;;;;549741;258;24143;-79
2024/01/12 10:19:27;;;;;;;3.23;1.40;;;2.30;99.90;1.80;100717;;;;550126;258;24179;-78
2024/01/12 10:21:55;;;;;;;1.80;1.70;;;2.60;99.90;2.00;100735;;;;546040;258;24128;-80
2024/01/12 10:24:23;;;;;;;1.37;0.83;;;2.90;99.90;2.10;100719;;;;549802;258;24157;-81
2024/01/12 10:26:52;;;;;;;0.93;0.83;;;3.10;99.90;2.20;100722;;;;557517;253;24162;-79
2024/01/12 10:29:19;;;;;;;2.07;1.70;;;3.20;99.90;2.30;100722;;;;546632;258;24116;-82
2024/01/12 10:31:48;;;;;;;1.20;1.17;;;3.40;99.90;2.40;100717;;;;550692;258;24129;-81
2024/01/12 10:34:16;;;;;;;5.83;1.37;;;3.50;99.90;2.50;100721;;;;550432;258;24115;-79
2024/01/12 10:36:45;;;;;;;1.20;1.10;;;3.40;99.90;2.50;100710;;;;550312;258;24126;-79
2024/01/12 10:39:13;;;;;;;5.40;1.77;;;3.50;99.90;2.60;100717;;;;549730;258;24136;-79
2024/01/12 10:41:43;;;;;;;1.50;1.17;;;3.50;99.90;2.50;100713;;;;558062;256;24149;-78
2024/01/12 10:44:08;;;;;;;2.50;1.40;;;3.60;99.90;2.50;100708;;;;558013;257;24148;-78
2024/01/12 10:46:42;;;;;;;3.37;1.27;;;3.50;99.90;2.50;100700;;;;549717;258;24131;-78
2024/01/12 10:49:21;;;;;;;1.70;1.13;;;3.50;99.90;2.50;100690;;;;549460;258;24181;-79
2024/01/12 10:52:02;;;;;;;1.23;1.17;;;3.50;99.90;2.40;100687;;;;549479;258;24153;-79
2024/01/12 10:54:29;;;;;;;2.73;1.17;;;3.40;99.90;2.40;100692;;;;557524;257;24159;-78
2024/01/12 10:57:00;;;;;;;1.10;1.03;;;3.40;99.90;2.40;100699;;;;549663;258;24157;-79
2024/01/12 10:59:29;;;;;;;3.60;1.47;;;3.40;99.90;2.40;100687;;;;549770;258;24114;-78
2024/01/12 11:01:57;;;;;;;1.03;0.93;;;3.40;99.90;2.40;100682;;;;549647;258;24121;-80
2024/01/12 11:04:24;;;;;;;2.50;1.47;;;3.40;99.90;2.40;100684;;;;549074;258;24169;-78
2024/01/12 11:06:53;;;;;;;1.33;1.30;;;3.40;99.90;2.40;100677;;;;548939;258;24131;-78
2024/01/12 11:09:17;;;;;;;3.97;1.37;;;3.40;99.90;2.50;100683;;;;549294;258;24199;-80
2024/01/12 11:11:45;;;;;;;4.47;1.50;;;3.40;99.90;2.50;100679;;;;548933;258;24143;-80
2024/01/12 11:14:13;;;;;;;1.10;0.93;;;3.40;99.90;2.40;100669;;;;549228;258;24137;-79
2024/01/12 11:16:41;;;;;;;1.53;1.40;;;3.40;99.90;2.40;100671;;;;549621;258;24127;-77